createdAt,value
2019-04-03T00:00:00.735Z,41
2019-04-03T00:00:06.766Z,43
2019-04-03T00:00:10.310Z,42
2019-04-03T00:00:14.910Z,41
2019-04-03T00:00:17.140Z,40
2019-04-03T00:00:19.407Z,39
2019-04-03T00:00:25.367Z,37
2019-04-03T00:00:29.038Z,36
2019-04-03T00:00:31.331Z,37
2019-04-03T00:00:36.705Z,39
2019-04-03T00:00:39.041Z,40
2019-04-03T00:00:42.541Z,39
2019-04-03T00:00:44.802Z,41
2019-04-03T00:00:47.041Z,42
2019-04-03T00:00:49.353Z,41
2019-04-03T00:00:51.611Z,42
2019-04-03T00:00:53.905Z,41
2019-04-03T00:00:56.165Z,42
2019-04-03T00:00:58.554Z,43
2019-04-03T00:01:00.845Z,42
2019-04-03T00:01:05.594Z,43
2019-04-03T00:01:08.954Z,42
2019-04-03T00:01:13.773Z,41
2019-04-03T00:01:16.107Z,42
2019-04-03T00:01:18.429Z,40
2019-04-03T00:01:22.946Z,41
2019-04-03T00:01:25.307Z,40
2019-04-03T00:01:28.681Z,39
2019-04-03T00:01:36.585Z,40
2019-04-03T00:01:40.086Z,39
2019-04-03T00:01:43.500Z,38
2019-04-03T00:01:48.058Z,39
2019-04-03T00:01:51.483Z,38
2019-04-03T00:01:53.762Z,37
2019-04-03T00:01:54.943Z,38
2019-04-03T00:01:56.059Z,37
2019-04-03T00:01:57.165Z,38
2019-04-03T00:01:59.387Z,39
2019-04-03T00:02:05.314Z,38
2019-04-03T00:02:07.492Z,37
2019-04-03T00:02:09.803Z,38
2019-04-03T00:02:13.229Z,39
2019-04-03T00:02:16.652Z,38
2019-04-03T00:02:18.867Z,39
2019-04-03T00:02:22.154Z,40
2019-04-03T00:02:24.384Z,41
2019-04-03T00:02:26.718Z,42
2019-04-03T00:02:30.169Z,43
2019-04-03T00:02:35.317Z,42
2019-04-03T00:02:38.728Z,43
2019-04-03T00:02:44.269Z,44
2019-04-03T00:02:46.536Z,43
2019-04-03T00:02:49.982Z,42
2019-04-03T00:02:53.633Z,41
2019-04-03T00:02:57.041Z,42
2019-04-03T00:03:00.461Z,41
2019-04-03T00:03:05.289Z,40
2019-04-03T00:03:10.815Z,41
2019-04-03T00:03:13.115Z,42
2019-04-03T00:03:15.410Z,41
2019-04-03T00:03:22.153Z,40
2019-04-03T00:03:23.330Z,39
2019-04-03T00:03:29.268Z,40
2019-04-03T00:03:35.052Z,41
2019-04-03T00:03:38.521Z,40
2019-04-03T00:03:39.658Z,42
2019-04-03T00:03:43.262Z,40
2019-04-03T00:03:45.572Z,41
2019-04-03T00:03:48.990Z,42
2019-04-03T00:03:51.294Z,43
2019-04-03T00:03:54.656Z,44
2019-04-03T00:03:58.108Z,43
2019-04-03T00:04:02.617Z,42
2019-04-03T00:04:06.523Z,43
2019-04-03T00:04:07.664Z,42
2019-04-03T00:04:09.985Z,41
2019-04-03T00:04:11.091Z,42
2019-04-03T00:04:12.241Z,41
2019-04-03T00:04:17.887Z,40
2019-04-03T00:04:24.597Z,41
2019-04-03T00:04:32.584Z,42
2019-04-03T00:04:37.550Z,43
2019-04-03T00:04:40.948Z,41
2019-04-03T00:04:44.403Z,42
2019-04-03T00:04:47.842Z,41
2019-04-03T00:04:53.772Z,42
2019-04-03T00:04:56.142Z,41
2019-04-03T00:05:05.425Z,42
2019-04-03T00:05:09.933Z,41
2019-04-03T00:05:13.387Z,42
2019-04-03T00:05:19.015Z,43
2019-04-03T00:05:20.211Z,42
2019-04-03T00:05:23.661Z,41
2019-04-03T00:05:27.081Z,42
2019-04-03T00:05:36.369Z,41
2019-04-03T00:05:39.841Z,42
2019-04-03T00:05:47.677Z,41
2019-04-03T00:05:50.978Z,42
2019-04-03T00:05:53.315Z,43
2019-04-03T00:05:56.794Z,42
2019-04-03T00:05:57.975Z,41
2019-04-03T00:06:01.328Z,42
2019-04-03T00:06:06.502Z,41
2019-04-03T00:06:21.956Z,40
2019-04-03T00:06:24.296Z,39
2019-04-03T00:06:26.600Z,40
2019-04-03T00:06:28.874Z,39
2019-04-03T00:06:31.181Z,40
2019-04-03T00:06:36.235Z,41
2019-04-03T00:06:38.518Z,42
2019-04-03T00:06:44.938Z,43
2019-04-03T00:06:55.490Z,42
2019-04-03T00:06:57.896Z,43
2019-04-03T00:06:59.700Z,42
2019-04-03T00:07:02.005Z,41
2019-04-03T00:07:07.538Z,40
2019-04-03T00:07:09.921Z,39
2019-04-03T00:07:13.432Z,40
2019-04-03T00:07:16.866Z,42
2019-04-03T00:07:21.348Z,41
2019-04-03T00:07:24.754Z,40
2019-04-03T00:07:28.163Z,41
2019-04-03T00:07:30.433Z,42
2019-04-03T00:07:36.479Z,43
2019-04-03T00:07:38.768Z,44
2019-04-03T00:07:41.025Z,43
2019-04-03T00:07:44.425Z,44
2019-04-03T00:07:50.168Z,43
2019-04-03T00:07:52.426Z,42
2019-04-03T00:07:54.732Z,43
2019-04-03T00:07:57.037Z,42
2019-04-03T00:08:00.318Z,41
2019-04-03T00:08:02.591Z,42
2019-04-03T00:08:08.650Z,43
2019-04-03T00:08:10.948Z,42
2019-04-03T00:08:13.239Z,41
2019-04-03T00:08:15.479Z,42
2019-04-03T00:08:17.716Z,41
2019-04-03T00:08:22.266Z,42
2019-04-03T00:08:26.907Z,43
2019-04-03T00:08:30.398Z,42
2019-04-03T00:08:34.735Z,43
2019-04-03T00:08:38.641Z,42
2019-04-03T00:08:42.009Z,43
2019-04-03T00:08:48.726Z,42
2019-04-03T00:08:51.039Z,43
2019-04-03T00:08:55.735Z,42
2019-04-03T00:08:59.259Z,44
2019-04-03T00:09:07.451Z,43
2019-04-03T00:09:10.843Z,42
2019-04-03T00:09:14.361Z,44
2019-04-03T00:09:20.139Z,42
2019-04-03T00:09:22.450Z,41
2019-04-03T00:09:24.875Z,42
2019-04-03T00:09:28.340Z,41
2019-04-03T00:09:31.701Z,42
2019-04-03T00:09:37.669Z,44
2019-04-03T00:09:39.935Z,43
2019-04-03T00:09:43.451Z,44
2019-04-03T00:09:51.368Z,45
2019-04-03T00:09:53.636Z,44
2019-04-03T00:09:59.255Z,43
2019-04-03T00:10:01.590Z,42
2019-04-03T00:10:08.666Z,41
2019-04-03T00:10:11.013Z,42
2019-04-03T00:10:16.843Z,41
2019-04-03T00:10:20.436Z,42
2019-04-03T00:10:25.005Z,43
2019-04-03T00:10:27.224Z,42
2019-04-03T00:10:30.479Z,41
2019-04-03T00:10:33.826Z,39
2019-04-03T00:10:42.122Z,38
2019-04-03T00:10:43.347Z,39
2019-04-03T00:10:46.730Z,38
2019-04-03T00:10:50.302Z,39
2019-04-03T00:10:54.464Z,40
2019-04-03T00:10:56.762Z,41
2019-04-03T00:11:03.101Z,42
2019-04-03T00:11:08.255Z,41
2019-04-03T00:11:13.557Z,43
2019-04-03T00:11:15.899Z,44
2019-04-03T00:11:19.305Z,43
2019-04-03T00:11:21.627Z,42
2019-04-03T00:11:23.969Z,43
2019-04-03T00:11:26.270Z,42
2019-04-03T00:11:28.557Z,41
2019-04-03T00:11:51.032Z,42
2019-04-03T00:11:53.295Z,44
2019-04-03T00:11:55.654Z,43
2019-04-03T00:11:59.260Z,44
2019-04-03T00:12:02.849Z,43
2019-04-03T00:12:11.426Z,44
2019-04-03T00:12:15.147Z,46
2019-04-03T00:12:17.419Z,47
2019-04-03T00:12:18.576Z,46
2019-04-03T00:12:23.139Z,44
2019-04-03T00:12:29.931Z,43
2019-04-03T00:12:32.237Z,42
2019-04-03T00:12:34.523Z,43
2019-04-03T00:12:41.702Z,42
2019-04-03T00:12:45.119Z,44
2019-04-03T00:12:50.822Z,43
2019-04-03T00:12:58.626Z,44
2019-04-03T00:13:00.827Z,43
2019-04-03T00:13:06.460Z,44
2019-04-03T00:13:12.902Z,43
2019-04-03T00:13:16.384Z,44
2019-04-03T00:13:28.047Z,43
2019-04-03T00:13:51.704Z,42
2019-04-03T00:13:57.743Z,40
2019-04-03T00:14:02.169Z,39
2019-04-03T00:14:07.686Z,40
2019-04-03T00:14:15.118Z,39
2019-04-03T00:14:20.418Z,40
2019-04-03T00:14:27.153Z,41
2019-04-03T00:14:34.928Z,42
2019-04-03T00:14:44.369Z,41
2019-04-03T00:14:51.921Z,42
2019-04-03T00:14:58.774Z,41
2019-04-03T00:15:01.981Z,42
2019-04-03T00:15:07.552Z,41
2019-04-03T00:15:15.637Z,42
2019-04-03T00:15:18.998Z,40
2019-04-03T00:15:21.341Z,41
2019-04-03T00:15:26.307Z,42
2019-04-03T00:15:29.766Z,43
2019-04-03T00:15:32.157Z,44
2019-04-03T00:15:37.783Z,43
2019-04-03T00:15:41.272Z,42
2019-04-03T00:15:46.685Z,43
2019-04-03T00:15:49.197Z,42
2019-04-03T00:15:51.543Z,43
2019-04-03T00:15:53.869Z,42
2019-04-03T00:15:57.274Z,43
2019-04-03T00:16:04.801Z,44
2019-04-03T00:16:07.031Z,43
2019-04-03T00:16:11.516Z,41
2019-04-03T00:16:25.573Z,42
2019-04-03T00:16:28.989Z,41
2019-04-03T00:16:34.861Z,42
2019-04-03T00:16:37.149Z,43
2019-04-03T00:16:39.482Z,42
2019-04-03T00:16:43.716Z,43
2019-04-03T00:16:47.606Z,42
2019-04-03T00:16:51.080Z,41
2019-04-03T00:16:54.659Z,42
2019-04-03T00:16:58.080Z,41
2019-04-03T00:17:01.424Z,42
2019-04-03T00:17:03.774Z,43
2019-04-03T00:17:06.065Z,42
2019-04-03T00:17:08.481Z,41
2019-04-03T00:17:11.993Z,43
2019-04-03T00:17:18.730Z,44
2019-04-03T00:17:22.095Z,43
2019-04-03T00:17:27.679Z,44
2019-04-03T00:17:31.067Z,45
2019-04-03T00:17:34.620Z,44
2019-04-03T00:17:39.095Z,43
2019-04-03T00:17:41.402Z,42
2019-04-03T00:17:47.791Z,43
2019-04-03T00:17:52.314Z,44
2019-04-03T00:17:54.573Z,43
2019-04-03T00:17:57.961Z,44
2019-04-03T00:18:01.292Z,43
2019-04-03T00:18:03.708Z,44
2019-04-03T00:18:05.992Z,43
2019-04-03T00:18:07.140Z,44
2019-04-03T00:18:08.264Z,43
2019-04-03T00:18:10.486Z,42
2019-04-03T00:18:11.619Z,43
2019-04-03T00:18:15.615Z,41
2019-04-03T00:18:18.436Z,42
2019-04-03T00:18:19.538Z,41
2019-04-03T00:18:20.706Z,42
2019-04-03T00:18:21.831Z,41
2019-04-03T00:18:24.169Z,42
2019-04-03T00:18:26.448Z,43
2019-04-03T00:18:28.744Z,44
2019-04-03T00:18:33.305Z,43
2019-04-03T00:18:34.519Z,44
2019-04-03T00:18:40.122Z,45
2019-04-03T00:18:42.398Z,44
2019-04-03T00:18:48.144Z,45
2019-04-03T00:18:51.519Z,44
2019-04-03T00:18:55.973Z,43
2019-04-03T00:18:58.205Z,42
2019-04-03T00:19:00.453Z,41
2019-04-03T00:19:03.915Z,40
2019-04-03T00:19:07.244Z,39
2019-04-03T00:19:11.737Z,40
2019-04-03T00:19:12.879Z,41
2019-04-03T00:19:18.618Z,43
2019-04-03T00:19:20.938Z,44
2019-04-03T00:19:24.437Z,43
2019-04-03T00:19:27.923Z,44
2019-04-03T00:19:32.457Z,43
2019-04-03T00:19:34.757Z,42
2019-04-03T00:19:38.166Z,41
2019-04-03T00:19:42.634Z,40
2019-04-03T00:19:50.484Z,41
2019-04-03T00:19:56.814Z,42
2019-04-03T00:19:59.061Z,43
2019-04-03T00:20:06.524Z,44
2019-04-03T00:20:19.469Z,45
2019-04-03T00:20:24.052Z,44
2019-04-03T00:20:25.229Z,45
2019-04-03T00:20:28.833Z,44
2019-04-03T00:20:31.024Z,43
2019-04-03T00:20:34.311Z,44
2019-04-03T00:20:36.637Z,43
2019-04-03T00:20:38.883Z,42
2019-04-03T00:20:41.108Z,41
2019-04-03T00:20:43.403Z,42
2019-04-03T00:20:46.734Z,41
2019-04-03T00:20:50.725Z,42
2019-04-03T00:20:53.003Z,41
2019-04-03T00:20:56.402Z,43
2019-04-03T00:20:58.726Z,42
2019-04-03T00:21:00.909Z,41
2019-04-03T00:21:04.560Z,42
2019-04-03T00:21:15.798Z,41
2019-04-03T00:21:20.564Z,43
2019-04-03T00:21:23.943Z,42
2019-04-03T00:21:25.054Z,43
2019-04-03T00:21:28.616Z,42
2019-04-03T00:21:33.366Z,43
2019-04-03T00:21:35.647Z,42
2019-04-03T00:21:36.787Z,41
2019-04-03T00:21:39.049Z,40
2019-04-03T00:21:41.337Z,39
2019-04-03T00:21:45.228Z,40
2019-04-03T00:21:52.655Z,41
2019-04-03T00:21:59.675Z,42
2019-04-03T00:22:07.315Z,43
2019-04-03T00:22:09.890Z,42
2019-04-03T00:22:12.231Z,43
2019-04-03T00:22:15.626Z,41
2019-04-03T00:22:17.939Z,42
2019-04-03T00:22:23.680Z,44
2019-04-03T00:22:28.245Z,45
2019-04-03T00:22:30.562Z,46
2019-04-03T00:22:33.001Z,45
2019-04-03T00:22:36.515Z,44
2019-04-03T00:22:37.966Z,43
2019-04-03T00:22:40.281Z,44
2019-04-03T00:22:41.378Z,43
2019-04-03T00:22:46.030Z,42
2019-04-03T00:22:52.560Z,43
2019-04-03T00:22:53.667Z,42
2019-04-03T00:22:57.057Z,41
2019-04-03T00:22:58.128Z,42
2019-04-03T00:23:02.905Z,41
2019-04-03T00:23:03.986Z,42
2019-04-03T00:23:07.549Z,43
2019-04-03T00:23:09.847Z,44
2019-04-03T00:23:14.485Z,43
2019-04-03T00:23:17.823Z,44
2019-04-03T00:23:23.262Z,45
2019-04-03T00:23:25.469Z,44
2019-04-03T00:23:33.264Z,45
2019-04-03T00:23:35.587Z,44
2019-04-03T00:23:42.741Z,43
2019-04-03T00:23:43.941Z,42
2019-04-03T00:23:50.788Z,41
2019-04-03T00:23:54.604Z,42
2019-04-03T00:23:56.859Z,41
2019-04-03T00:24:00.382Z,42
2019-04-03T00:24:02.675Z,43
2019-04-03T00:24:04.975Z,44
2019-04-03T00:24:10.546Z,45
2019-04-03T00:24:13.907Z,46
2019-04-03T00:24:24.518Z,45
2019-04-03T00:24:27.014Z,44
2019-04-03T00:24:29.326Z,45
2019-04-03T00:24:31.629Z,44
2019-04-03T00:24:36.092Z,45
2019-04-03T00:24:46.146Z,46
2019-04-03T00:24:50.619Z,45
2019-04-03T00:25:00.125Z,44
2019-04-03T00:25:03.558Z,45
2019-04-03T00:25:06.969Z,44
2019-04-03T00:25:18.113Z,43
2019-04-03T00:25:24.272Z,44
2019-04-03T00:25:32.539Z,43
2019-04-03T00:25:37.714Z,42
2019-04-03T00:25:46.178Z,41
2019-04-03T00:25:54.380Z,43
2019-04-03T00:25:56.619Z,44
2019-04-03T00:25:58.904Z,46
2019-04-03T00:26:00.053Z,45
2019-04-03T00:26:03.393Z,46
2019-04-03T00:26:06.893Z,45
2019-04-03T00:26:10.297Z,46
2019-04-03T00:26:18.306Z,45
2019-04-03T00:26:20.450Z,44
2019-04-03T00:26:24.362Z,43
2019-04-03T00:26:26.727Z,44
2019-04-03T00:26:33.136Z,42
2019-04-03T00:26:36.496Z,41
2019-04-03T00:26:39.900Z,42
2019-04-03T00:26:43.272Z,44
2019-04-03T00:26:45.560Z,43
2019-04-03T00:26:46.778Z,44
2019-04-03T00:26:47.868Z,45
2019-04-03T00:26:53.550Z,46
2019-04-03T00:27:01.484Z,45
2019-04-03T00:27:04.807Z,46
2019-04-03T00:27:08.323Z,45
2019-04-03T00:27:12.822Z,46
2019-04-03T00:27:18.522Z,45
2019-04-03T00:27:24.377Z,46
2019-04-03T00:27:26.856Z,45
2019-04-03T00:27:29.147Z,44
2019-04-03T00:27:32.606Z,43
2019-04-03T00:27:37.128Z,44
2019-04-03T00:27:41.735Z,43
2019-04-03T00:27:45.119Z,44
2019-04-03T00:27:47.402Z,45
2019-04-03T00:27:53.322Z,47
2019-04-03T00:28:00.074Z,46
2019-04-03T00:28:03.527Z,45
2019-04-03T00:28:05.757Z,46
2019-04-03T00:28:07.999Z,45
2019-04-03T00:28:11.337Z,46
2019-04-03T00:28:12.493Z,45
2019-04-03T00:28:14.835Z,46
2019-04-03T00:28:17.146Z,45
2019-04-03T00:28:20.657Z,46
2019-04-03T00:28:25.602Z,45
2019-04-03T00:28:28.926Z,46
2019-04-03T00:28:31.220Z,45
2019-04-03T00:28:34.573Z,43
2019-04-03T00:28:37.912Z,45
2019-04-03T00:28:41.315Z,44
2019-04-03T00:28:44.701Z,43
2019-04-03T00:28:49.190Z,42
2019-04-03T00:28:54.309Z,43
2019-04-03T00:28:57.734Z,44
2019-04-03T00:29:01.181Z,46
2019-04-03T00:29:06.855Z,47
2019-04-03T00:29:09.135Z,48
2019-04-03T00:29:12.454Z,47
2019-04-03T00:29:19.099Z,46
2019-04-03T00:29:24.463Z,47
2019-04-03T00:29:28.933Z,48
2019-04-03T00:29:30.156Z,47
2019-04-03T00:29:35.747Z,46
2019-04-03T00:29:38.033Z,47
2019-04-03T00:29:40.304Z,46
2019-04-03T00:29:53.101Z,47
2019-04-03T00:29:56.519Z,46
2019-04-03T00:29:58.819Z,47
2019-04-03T00:30:01.047Z,46
2019-04-03T00:30:03.349Z,45
2019-04-03T00:30:06.898Z,46
2019-04-03T00:30:10.395Z,47
2019-04-03T00:30:17.209Z,46
2019-04-03T00:30:20.481Z,45
2019-04-03T00:30:26.819Z,43
2019-04-03T00:30:31.425Z,44
2019-04-03T00:30:33.767Z,45
2019-04-03T00:30:36.060Z,44
2019-04-03T00:30:38.400Z,45
2019-04-03T00:30:40.781Z,44
2019-04-03T00:30:43.112Z,45
2019-04-03T00:30:45.358Z,44
2019-04-03T00:30:48.735Z,43
2019-04-03T00:30:55.968Z,44
2019-04-03T00:30:59.269Z,45
2019-04-03T00:31:01.574Z,46
2019-04-03T00:31:04.906Z,45
2019-04-03T00:31:13.014Z,44
2019-04-03T00:31:16.509Z,45
2019-04-03T00:31:26.476Z,44
2019-04-03T00:31:29.008Z,43
2019-04-03T00:31:33.515Z,42
2019-04-03T00:31:35.800Z,43
2019-04-03T00:31:41.553Z,44
2019-04-03T00:31:47.272Z,45
2019-04-03T00:31:56.864Z,44
2019-04-03T00:31:59.215Z,45
2019-04-03T00:32:01.554Z,44
2019-04-03T00:32:04.995Z,45
2019-04-03T00:32:08.279Z,44
2019-04-03T00:32:14.380Z,45
2019-04-03T00:32:17.755Z,44
2019-04-03T00:32:21.716Z,45
2019-04-03T00:32:26.824Z,44
2019-04-03T00:32:33.690Z,45
2019-04-03T00:32:36.018Z,46
2019-04-03T00:32:38.335Z,45
2019-04-03T00:32:45.272Z,44
2019-04-03T00:32:48.626Z,43
2019-04-03T00:32:54.671Z,44
2019-04-03T00:33:07.897Z,45
2019-04-03T00:33:13.072Z,44
2019-04-03T00:33:20.033Z,43
2019-04-03T00:33:28.944Z,41
2019-04-03T00:33:32.383Z,42
2019-04-03T00:33:34.684Z,41
2019-04-03T00:33:35.797Z,42
2019-04-03T00:33:38.069Z,43
2019-04-03T00:33:45.879Z,44
2019-04-03T00:33:47.049Z,43
2019-04-03T00:34:03.411Z,44
2019-04-03T00:34:06.025Z,43
2019-04-03T00:34:09.851Z,42
2019-04-03T00:34:12.079Z,43
2019-04-03T00:34:16.607Z,44
2019-04-03T00:34:18.902Z,46
2019-04-03T00:34:22.953Z,45
2019-04-03T00:34:24.604Z,46
2019-04-03T00:34:26.900Z,45
2019-04-03T00:34:31.341Z,44
2019-04-03T00:34:33.621Z,43
2019-04-03T00:34:34.787Z,44
2019-04-03T00:34:38.145Z,45
2019-04-03T00:34:41.516Z,46
2019-04-03T00:34:44.918Z,47
2019-04-03T00:34:47.197Z,46
2019-04-03T00:34:49.564Z,47
2019-04-03T00:34:56.700Z,45
2019-04-03T00:35:01.338Z,44
2019-04-03T00:35:03.735Z,43
2019-04-03T00:35:07.157Z,44
2019-04-03T00:35:10.574Z,43
2019-04-03T00:35:15.123Z,44
2019-04-03T00:35:18.672Z,43
2019-04-03T00:35:24.362Z,44
2019-04-03T00:35:26.624Z,45
2019-04-03T00:35:28.971Z,46
2019-04-03T00:35:31.308Z,45
2019-04-03T00:35:32.478Z,46
2019-04-03T00:35:36.945Z,45
2019-04-03T00:35:41.498Z,44
2019-04-03T00:35:45.007Z,45
2019-04-03T00:35:49.596Z,44
2019-04-03T00:35:54.256Z,43
2019-04-03T00:35:56.638Z,44
2019-04-03T00:35:58.947Z,43
2019-04-03T00:36:00.077Z,44
2019-04-03T00:36:02.386Z,43
2019-04-03T00:36:05.837Z,45
2019-04-03T00:36:08.145Z,46
2019-04-03T00:36:12.426Z,45
2019-04-03T00:36:15.873Z,44
2019-04-03T00:36:19.240Z,45
2019-04-03T00:36:24.256Z,44
2019-04-03T00:36:26.640Z,45
2019-04-03T00:36:28.962Z,44
2019-04-03T00:36:33.469Z,45
2019-04-03T00:36:35.700Z,44
2019-04-03T00:36:38.217Z,45
2019-04-03T00:36:41.698Z,46
2019-04-03T00:36:43.987Z,47
2019-04-03T00:36:46.544Z,46
2019-04-03T00:36:52.869Z,45
2019-04-03T00:36:55.386Z,44
2019-04-03T00:36:57.692Z,43
2019-04-03T00:37:01.164Z,45
2019-04-03T00:37:05.786Z,46
2019-04-03T00:37:09.098Z,45
2019-04-03T00:37:24.120Z,44
2019-04-03T00:37:26.407Z,45
2019-04-03T00:37:27.572Z,44
2019-04-03T00:37:28.675Z,45
2019-04-03T00:37:33.109Z,46
2019-04-03T00:37:35.477Z,45
2019-04-03T00:37:37.733Z,44
2019-04-03T00:37:40.049Z,45
2019-04-03T00:37:41.176Z,44
2019-04-03T00:37:43.476Z,43
2019-04-03T00:37:47.234Z,44
2019-04-03T00:37:49.477Z,46
2019-04-03T00:37:56.903Z,47
2019-04-03T00:37:58.145Z,46
2019-04-03T00:38:01.534Z,45
2019-04-03T00:38:06.003Z,44
2019-04-03T00:38:15.026Z,43
2019-04-03T00:38:20.642Z,45
2019-04-03T00:38:25.194Z,46
2019-04-03T00:38:28.580Z,47
2019-04-03T00:38:30.896Z,48
2019-04-03T00:38:33.348Z,49
2019-04-03T00:38:35.603Z,47
2019-04-03T00:38:37.958Z,48
2019-04-03T00:38:42.439Z,49
2019-04-03T00:38:48.033Z,47
2019-04-03T00:38:52.556Z,48
2019-04-03T00:38:58.800Z,47
2019-04-03T00:39:01.067Z,46
2019-04-03T00:39:04.432Z,47
2019-04-03T00:39:07.857Z,46
2019-04-03T00:39:09.041Z,47
2019-04-03T00:39:12.523Z,48
2019-04-03T00:39:17.916Z,44
2019-04-03T00:39:22.636Z,46
2019-04-03T00:39:28.744Z,47
2019-04-03T00:39:31.438Z,46
2019-04-03T00:39:33.706Z,45
2019-04-03T00:39:35.959Z,46
2019-04-03T00:39:38.993Z,45
2019-04-03T00:39:42.724Z,46
2019-04-03T00:39:48.763Z,45
2019-04-03T00:39:55.266Z,46
2019-04-03T00:39:58.672Z,45
2019-04-03T00:40:02.008Z,46
2019-04-03T00:40:06.487Z,47
2019-04-03T00:40:08.750Z,46
2019-04-03T00:40:12.145Z,45
2019-04-03T00:40:15.586Z,44
2019-04-03T00:40:26.337Z,45
2019-04-03T00:40:28.676Z,44
2019-04-03T00:40:32.182Z,45
2019-04-03T00:40:35.614Z,44
2019-04-03T00:40:41.211Z,43
2019-04-03T00:40:44.654Z,44
2019-04-03T00:40:48.236Z,45
2019-04-03T00:40:52.567Z,44
2019-04-03T00:40:56.471Z,43
2019-04-03T00:41:00.572Z,44
2019-04-03T00:41:01.771Z,45
2019-04-03T00:41:04.085Z,44
2019-04-03T00:41:06.376Z,45
2019-04-03T00:41:08.604Z,46
2019-04-03T00:41:12.029Z,45
2019-04-03T00:41:14.261Z,46
2019-04-03T00:41:18.295Z,45
2019-04-03T00:41:25.462Z,43
2019-04-03T00:41:30.216Z,44
2019-04-03T00:41:33.655Z,45
2019-04-03T00:41:37.059Z,46
2019-04-03T00:41:43.798Z,45
2019-04-03T00:41:47.297Z,44
2019-04-03T00:41:52.918Z,45
2019-04-03T00:41:56.718Z,46
2019-04-03T00:42:00.174Z,45
2019-04-03T00:42:02.534Z,46
2019-04-03T00:42:14.918Z,47
2019-04-03T00:42:16.102Z,48
2019-04-03T00:42:26.588Z,49
2019-04-03T00:42:32.197Z,48
2019-04-03T00:42:39.031Z,47
2019-04-03T00:42:42.445Z,46
2019-04-03T00:42:44.697Z,47
2019-04-03T00:42:49.164Z,46
2019-04-03T00:42:54.535Z,47
2019-04-03T00:42:59.450Z,46
2019-04-03T00:43:04.896Z,47
2019-04-03T00:43:11.990Z,48
2019-04-03T00:43:15.404Z,46
2019-04-03T00:43:25.505Z,47
2019-04-03T00:43:34.834Z,46
2019-04-03T00:43:37.133Z,45
2019-04-03T00:43:40.549Z,46
2019-04-03T00:43:52.714Z,47
2019-04-03T00:43:57.652Z,48
2019-04-03T00:44:03.464Z,49
2019-04-03T00:44:05.738Z,50
2019-04-03T00:44:06.952Z,49
2019-04-03T00:44:08.086Z,48
2019-04-03T00:44:11.507Z,47
2019-04-03T00:44:16.996Z,46
2019-04-03T00:44:27.387Z,47
2019-04-03T00:44:29.638Z,46
2019-04-03T00:44:30.718Z,47
2019-04-03T00:44:36.629Z,46
2019-04-03T00:44:40.068Z,47
2019-04-03T00:44:52.712Z,46
2019-04-03T00:44:57.651Z,45
2019-04-03T00:44:58.827Z,46
2019-04-03T00:45:02.233Z,47
2019-04-03T00:45:07.287Z,48
2019-04-03T00:45:12.946Z,47
2019-04-03T00:45:17.463Z,46
2019-04-03T00:45:20.948Z,47
2019-04-03T00:45:25.498Z,46
2019-04-03T00:45:31.462Z,45
2019-04-03T00:45:36.001Z,46
2019-04-03T00:45:46.193Z,47
2019-04-03T00:45:49.677Z,46
2019-04-03T00:45:54.006Z,47
2019-04-03T00:45:57.958Z,48
2019-04-03T00:46:02.499Z,47
2019-04-03T00:46:04.809Z,46
2019-04-03T00:46:08.307Z,47
2019-04-03T00:46:09.491Z,48
2019-04-03T00:46:11.845Z,49
2019-04-03T00:46:14.231Z,48
2019-04-03T00:46:17.732Z,49
2019-04-03T00:46:20.018Z,48
2019-04-03T00:46:22.763Z,49
2019-04-03T00:46:26.323Z,47
2019-04-03T00:46:31.778Z,46
2019-04-03T00:46:35.198Z,47
2019-04-03T00:46:40.770Z,46
2019-04-03T00:46:43.033Z,45
2019-04-03T00:46:44.210Z,46
2019-04-03T00:46:48.655Z,45
2019-04-03T00:46:56.583Z,46
2019-04-03T00:46:58.839Z,47
2019-04-03T00:47:07.006Z,48
2019-04-03T00:47:09.313Z,47
2019-04-03T00:47:11.568Z,46
2019-04-03T00:47:19.445Z,47
2019-04-03T00:47:21.752Z,48
2019-04-03T00:47:29.604Z,47
2019-04-03T00:47:32.218Z,48
2019-04-03T00:47:34.554Z,47
2019-04-03T00:47:39.075Z,46
2019-04-03T00:47:42.566Z,47
2019-04-03T00:47:43.757Z,46
2019-04-03T00:47:44.867Z,47
2019-04-03T00:47:47.145Z,46
2019-04-03T00:47:50.596Z,47
2019-04-03T00:47:55.152Z,46
2019-04-03T00:47:57.723Z,47
2019-04-03T00:48:03.321Z,46
2019-04-03T00:48:05.584Z,47
2019-04-03T00:48:08.985Z,48
2019-04-03T00:48:11.372Z,47
2019-04-03T00:48:13.744Z,48
2019-04-03T00:48:16.010Z,47
2019-04-03T00:48:20.548Z,46
2019-04-03T00:48:23.652Z,45
2019-04-03T00:48:27.471Z,46
2019-04-03T00:48:29.804Z,47
2019-04-03T00:48:32.028Z,46
2019-04-03T00:48:34.157Z,47
2019-04-03T00:48:35.358Z,46
2019-04-03T00:48:36.481Z,47
2019-04-03T00:48:42.304Z,46
2019-04-03T00:48:45.638Z,45
2019-04-03T00:48:51.313Z,46
2019-04-03T00:48:57.724Z,45
2019-04-03T00:49:01.115Z,46
2019-04-03T00:49:03.395Z,45
2019-04-03T00:49:06.804Z,44
2019-04-03T00:49:11.620Z,45
2019-04-03T00:49:13.982Z,46
2019-04-03T00:49:16.281Z,47
2019-04-03T00:49:19.708Z,48
2019-04-03T00:49:24.260Z,47
2019-04-03T00:49:30.507Z,50
2019-04-03T00:49:32.766Z,49
2019-04-03T00:49:34.983Z,48
2019-04-03T00:49:48.039Z,47
2019-04-03T00:49:57.683Z,46
2019-04-03T00:50:13.788Z,47
2019-04-03T00:50:16.361Z,46
2019-04-03T00:50:27.643Z,45
2019-04-03T00:50:32.173Z,46
2019-04-03T00:50:35.625Z,47
2019-04-03T00:50:43.467Z,48
2019-04-03T00:50:47.094Z,49
2019-04-03T00:50:50.972Z,48
2019-04-03T00:51:03.430Z,47
2019-04-03T00:51:06.950Z,46
2019-04-03T00:51:09.367Z,47
2019-04-03T00:51:12.874Z,48
2019-04-03T00:51:16.336Z,49
2019-04-03T00:51:20.763Z,48
2019-04-03T00:51:24.182Z,49
2019-04-03T00:51:28.389Z,50
2019-04-03T00:51:31.779Z,49
2019-04-03T00:51:34.074Z,48
2019-04-03T00:51:36.317Z,49
2019-04-03T00:51:38.604Z,50
2019-04-03T00:51:40.945Z,48
2019-04-03T00:51:43.202Z,49
2019-04-03T00:51:45.503Z,48
2019-04-03T00:51:51.525Z,47
2019-04-03T00:51:55.647Z,45
2019-04-03T00:52:00.683Z,46
2019-04-03T00:52:04.102Z,47
2019-04-03T00:52:07.655Z,48
2019-04-03T00:52:08.806Z,49
2019-04-03T00:52:12.359Z,50
2019-04-03T00:52:14.644Z,51
2019-04-03T00:52:15.766Z,50
2019-04-03T00:52:16.864Z,51
2019-04-03T00:52:20.233Z,50
2019-04-03T00:52:22.510Z,49
2019-04-03T00:52:28.547Z,48
2019-04-03T00:52:30.995Z,49
2019-04-03T00:52:33.409Z,48
2019-04-03T00:52:35.712Z,49
2019-04-03T00:52:37.900Z,48
2019-04-03T00:52:39.009Z,49
2019-04-03T00:52:41.369Z,50
2019-04-03T00:52:43.630Z,49
2019-04-03T00:52:47.095Z,48
2019-04-03T00:52:49.483Z,49
2019-04-03T00:52:53.890Z,48
2019-04-03T00:52:58.438Z,47
2019-04-03T00:53:00.826Z,46
2019-04-03T00:53:09.913Z,47
2019-04-03T00:53:14.448Z,46
2019-04-03T00:53:17.809Z,45
2019-04-03T00:53:21.155Z,46
2019-04-03T00:53:29.612Z,45
2019-04-03T00:53:31.869Z,46
2019-04-03T00:53:34.166Z,45
2019-04-03T00:53:38.684Z,44
2019-04-03T00:53:42.102Z,45
2019-04-03T00:53:45.514Z,47
2019-04-03T00:53:50.053Z,48
2019-04-03T00:53:58.375Z,49
2019-04-03T00:54:00.697Z,48
2019-04-03T00:54:03.006Z,47
2019-04-03T00:54:07.534Z,48
2019-04-03T00:54:15.788Z,50
2019-04-03T00:54:19.165Z,49
2019-04-03T00:54:20.320Z,48
2019-04-03T00:54:27.386Z,47
2019-04-03T00:54:33.391Z,48
2019-04-03T00:54:38.911Z,49
2019-04-03T00:54:42.324Z,50
2019-04-03T00:54:44.677Z,49
2019-04-03T00:54:49.302Z,48
2019-04-03T00:54:51.545Z,47
2019-04-03T00:54:54.759Z,48
2019-04-03T00:54:59.790Z,47
2019-04-03T00:55:02.084Z,48
2019-04-03T00:55:06.559Z,49
2019-04-03T00:55:07.664Z,50
2019-04-03T00:55:10.023Z,49
2019-04-03T00:55:13.484Z,50
2019-04-03T00:55:14.685Z,49
2019-04-03T00:55:16.993Z,48
2019-04-03T00:55:19.247Z,49
2019-04-03T00:55:20.362Z,50
2019-04-03T00:55:24.865Z,49
2019-04-03T00:55:27.636Z,50
2019-04-03T00:55:30.011Z,49
2019-04-03T00:55:33.352Z,48
2019-04-03T00:55:39.284Z,47
2019-04-03T00:55:41.565Z,48
2019-04-03T00:55:46.126Z,47
2019-04-03T00:55:49.604Z,48
2019-04-03T00:55:51.947Z,47
2019-04-03T00:55:54.732Z,46
2019-04-03T00:56:00.825Z,47
2019-04-03T00:56:05.373Z,46
2019-04-03T00:56:10.058Z,47
2019-04-03T00:56:13.619Z,48
2019-04-03T00:56:17.018Z,49
2019-04-03T00:56:20.396Z,48
2019-04-03T00:56:30.778Z,49
2019-04-03T00:56:33.093Z,48
2019-04-03T00:56:39.075Z,49
2019-04-03T00:56:42.392Z,48
2019-04-03T00:56:45.801Z,49
2019-04-03T00:56:48.059Z,48
2019-04-03T00:56:49.132Z,47
2019-04-03T00:56:51.433Z,48